createdAt,value
2023-01-29T00:00:34.965Z,-1.89
2023-01-29T00:03:25.627Z,-1.93
2023-01-29T00:05:55.607Z,-1.89
2023-01-29T00:08:28.724Z,-1.84
2023-01-29T00:11:03.722Z,-1.77
2023-01-29T00:13:34.605Z,-1.76
2023-01-29T00:16:06.318Z,-1.90
2023-01-29T00:18:37.392Z,-1.88
2023-01-29T00:21:11.008Z,-1.89
2023-01-29T00:23:45.157Z,-1.82
2023-01-29T00:26:15.657Z,-1.84
2023-01-29T00:28:47.505Z,-1.84
2023-01-29T00:31:19.256Z,-1.81
2023-01-29T00:33:50.174Z,-1.81
2023-01-29T00:36:22.432Z,-1.76
2023-01-29T00:39:03.964Z,-1.75
2023-01-29T00:41:48.086Z,-1.74
2023-01-29T00:44:31.500Z,-1.74
2023-01-29T00:47:02.258Z,-1.81
2023-01-29T00:49:33.053Z,-1.80
2023-01-29T00:52:15.643Z,-1.79
2023-01-29T00:54:48.554Z,-1.80
2023-01-29T00:57:18.644Z,-1.85
2023-01-29T00:59:50.067Z,-1.81
2023-01-29T01:02:32.624Z,-1.79
2023-01-29T01:05:07.226Z,-1.80
2023-01-29T01:07:38.284Z,-1.76
2023-01-29T01:10:24.445Z,-1.72
2023-01-29T01:12:58.939Z,-1.72
2023-01-29T01:15:33.181Z,-1.74
2023-01-29T01:18:04.986Z,-1.79
2023-01-29T01:20:40.181Z,-1.83
2023-01-29T01:23:11.793Z,-1.89
2023-01-29T01:25:48.998Z,-1.82
2023-01-29T01:28:22.452Z,-1.76
2023-01-29T01:30:54.682Z,-1.80
2023-01-29T01:33:31.817Z,-1.76
2023-01-29T01:36:05.632Z,-1.69
2023-01-29T01:38:45.469Z,-1.63
2023-01-29T01:41:24.646Z,-1.64
2023-01-29T01:44:00.266Z,-1.65
2023-01-29T01:46:37.070Z,-1.66
2023-01-29T01:49:13.530Z,-1.75
2023-01-29T01:51:49.785Z,-1.83
2023-01-29T01:54:28.250Z,-1.86
2023-01-29T01:57:17.427Z,-1.84
2023-01-29T01:59:55.982Z,-1.81
2023-01-29T02:02:40.521Z,-1.86
2023-01-29T02:05:26.274Z,-1.81
2023-01-29T02:08:09.359Z,-1.81
2023-01-29T02:10:44.500Z,-1.79
2023-01-29T02:13:19.473Z,-1.77
2023-01-29T02:15:50.048Z,-1.76
2023-01-29T02:18:24.073Z,-1.70
2023-01-29T02:21:10.628Z,-1.79
2023-01-29T02:24:04.350Z,-1.74
2023-01-29T02:26:47.273Z,-1.74
2023-01-29T02:29:27.250Z,-1.81
2023-01-29T02:32:12.670Z,-1.81
2023-01-29T02:35:02.491Z,-1.77
2023-01-29T02:37:38.986Z,-1.80
2023-01-29T02:40:18.918Z,-1.80
2023-01-29T02:42:57.144Z,-1.82
2023-01-29T02:45:38.424Z,-1.85
2023-01-29T02:48:08.976Z,-1.84
2023-01-29T02:50:46.075Z,-1.81
2023-01-29T02:53:19.167Z,-1.79
2023-01-29T02:55:55.383Z,-1.75
2023-01-29T02:58:33.448Z,-1.72
2023-01-29T03:01:12.654Z,-1.69
2023-01-29T03:03:47.375Z,-1.72
2023-01-29T03:06:23.484Z,-1.77
2023-01-29T03:08:58.078Z,-1.79
2023-01-29T03:11:32.733Z,-1.84
2023-01-29T03:14:07.400Z,-1.81
2023-01-29T03:16:45.464Z,-1.79
2023-01-29T03:19:18.499Z,-1.80
2023-01-29T03:21:59.257Z,-1.77
2023-01-29T03:24:49.472Z,-1.71
2023-01-29T03:27:35.772Z,-1.68
2023-01-29T03:30:20.437Z,-1.75
2023-01-29T03:32:54.669Z,-1.78
2023-01-29T03:35:36.653Z,-1.79
2023-01-29T03:38:10.005Z,-1.75
2023-01-29T03:40:52.011Z,-1.70
2023-01-29T03:43:33.045Z,-1.78
2023-01-29T03:46:08.483Z,-1.76
2023-01-29T03:48:52.194Z,-1.80
2023-01-29T03:51:29.119Z,-1.77
2023-01-29T03:54:08.882Z,-1.80
2023-01-29T03:56:55.417Z,-1.81
2023-01-29T03:59:36.104Z,-1.81
2023-01-29T04:02:10.196Z,-1.79
2023-01-29T04:04:47.961Z,-1.76
2023-01-29T04:07:23.802Z,-1.75
2023-01-29T04:09:57.498Z,-1.70
2023-01-29T04:12:31.583Z,-1.70
2023-01-29T04:15:04.519Z,-1.69
2023-01-29T04:17:40.563Z,-1.75
2023-01-29T04:20:15.027Z,-1.74
2023-01-29T04:22:48.447Z,-1.78
2023-01-29T04:25:26.777Z,-1.69
2023-01-29T04:28:06.193Z,-1.72
2023-01-29T04:30:45.419Z,-1.69
2023-01-29T04:33:30.091Z,-1.75
2023-01-29T04:36:20.603Z,-1.82
2023-01-29T04:39:01.363Z,-1.76
2023-01-29T04:41:36.821Z,-1.74
2023-01-29T04:44:15.395Z,-1.68
2023-01-29T04:46:52.291Z,-1.69
2023-01-29T04:49:35.259Z,-1.72
2023-01-29T04:52:15.209Z,-1.74
2023-01-29T04:55:01.178Z,-1.71
2023-01-29T04:57:38.832Z,-1.60
2023-01-29T05:00:15.200Z,-1.64
2023-01-29T05:02:48.286Z,-1.62
2023-01-29T05:05:22.224Z,-1.63
2023-01-29T05:07:56.131Z,-1.61
2023-01-29T05:10:27.672Z,-1.70
2023-01-29T05:13:03.140Z,-1.69
2023-01-29T05:15:39.770Z,-1.65
2023-01-29T05:18:11.576Z,-1.63
2023-01-29T05:20:44.284Z,-1.66
2023-01-29T05:23:22.636Z,-1.66
2023-01-29T05:25:54.380Z,-1.63
2023-01-29T05:28:22.535Z,-1.67
2023-01-29T05:30:55.181Z,-1.64
2023-01-29T05:33:26.963Z,-1.62
2023-01-29T05:35:57.915Z,-1.61
2023-01-29T05:38:30.752Z,-1.61
2023-01-29T05:41:01.787Z,-1.56
2023-01-29T05:43:32.075Z,-1.70
2023-01-29T05:46:04.917Z,-1.79
2023-01-29T05:48:35.272Z,-1.80
2023-01-29T05:51:06.033Z,-1.86
2023-01-29T05:53:39.012Z,-1.86
2023-01-29T05:56:09.644Z,-1.79
2023-01-29T05:58:40.029Z,-1.86
2023-01-29T06:01:15.144Z,-1.78
2023-01-29T06:03:46.253Z,-1.79
2023-01-29T06:06:16.855Z,-1.74
2023-01-29T06:08:49.947Z,-1.75
2023-01-29T06:11:21.699Z,-1.78
2023-01-29T06:13:52.031Z,-1.72
2023-01-29T06:16:22.035Z,-1.70
2023-01-29T06:18:52.327Z,-1.67
2023-01-29T06:21:22.263Z,-1.67
2023-01-29T06:23:55.437Z,-1.67
2023-01-29T06:26:25.485Z,-1.68
2023-01-29T06:28:55.786Z,-1.72
2023-01-29T06:31:37.832Z,-1.71
2023-01-29T06:34:09.636Z,-1.69
2023-01-29T06:36:39.975Z,-1.65
2023-01-29T06:39:13.142Z,-1.64
2023-01-29T06:41:43.138Z,-1.63
2023-01-29T06:44:13.470Z,-1.61
2023-01-29T06:46:43.467Z,-1.61
2023-01-29T06:49:13.825Z,-1.59
2023-01-29T06:51:43.721Z,-1.58
2023-01-29T06:54:17.153Z,-1.58
2023-01-29T06:56:47.293Z,-1.60
2023-01-29T06:59:17.773Z,-1.62
2023-01-29T07:01:47.907Z,-1.66
2023-01-29T07:04:18.282Z,-1.63
2023-01-29T07:06:48.246Z,-1.61
2023-01-29T07:09:21.170Z,-1.55
2023-01-29T07:11:51.143Z,-1.60
2023-01-29T07:14:21.450Z,-1.55
2023-01-29T07:16:51.494Z,-1.55
2023-01-29T07:19:21.786Z,-1.48
2023-01-29T07:21:51.964Z,-1.52
2023-01-29T07:24:25.088Z,-1.50
2023-01-29T07:26:55.574Z,-1.52
2023-01-29T07:29:26.678Z,-1.47
2023-01-29T07:31:59.441Z,-1.46
2023-01-29T07:34:29.910Z,-1.50
2023-01-29T07:36:59.850Z,-1.49
2023-01-29T07:39:33.403Z,-1.50
2023-01-29T07:42:03.427Z,-1.52
2023-01-29T07:44:33.864Z,-1.52
2023-01-29T07:47:03.816Z,-1.45
2023-01-29T07:49:34.364Z,-1.46
2023-01-29T07:52:04.245Z,-1.45
2023-01-29T07:54:37.161Z,-1.50
2023-01-29T07:57:07.389Z,-1.50
2023-01-29T07:59:37.875Z,-1.50
2023-01-29T08:02:08.025Z,-1.46
2023-01-29T08:04:38.510Z,-1.43
2023-01-29T08:07:09.479Z,-1.49
2023-01-29T08:09:42.446Z,-1.45
2023-01-29T08:12:12.403Z,-1.49
2023-01-29T08:14:43.179Z,-1.46
2023-01-29T08:17:15.317Z,-1.46
2023-01-29T08:19:45.675Z,-1.48
2023-01-29T08:22:16.564Z,-1.42
2023-01-29T08:24:54.399Z,-1.41
2023-01-29T08:27:30.207Z,-1.41
2023-01-29T08:30:00.552Z,-1.39
2023-01-29T08:32:30.581Z,-1.38
2023-01-29T08:35:01.075Z,-1.36
2023-01-29T08:37:31.255Z,-1.34
2023-01-29T08:40:04.258Z,-1.28
2023-01-29T08:42:34.328Z,-1.28
2023-01-29T08:45:04.862Z,-1.27
2023-01-29T08:47:34.840Z,-1.30
2023-01-29T08:50:05.178Z,-1.29
2023-01-29T08:52:35.183Z,-1.29
2023-01-29T08:55:09.240Z,-1.31
2023-01-29T08:57:39.458Z,-1.27
2023-01-29T09:00:11.989Z,-1.28
2023-01-29T09:02:44.402Z,-1.25
2023-01-29T09:05:15.349Z,-1.26
2023-01-29T09:07:45.650Z,-1.23
2023-01-29T09:10:19.579Z,-1.23
2023-01-29T09:12:49.601Z,-1.26
2023-01-29T09:15:20.115Z,-1.21
2023-01-29T09:17:50.852Z,-1.20
2023-01-29T09:20:22.121Z,-1.18
2023-01-29T09:22:53.719Z,-1.15
2023-01-29T09:25:26.671Z,-1.11
2023-01-29T09:27:57.169Z,-1.11
2023-01-29T09:30:27.985Z,-1.08
2023-01-29T09:32:58.302Z,-1.06
2023-01-29T09:35:29.023Z,-1.05
2023-01-29T09:37:59.369Z,-1.02
2023-01-29T09:40:38.432Z,-0.99
2023-01-29T09:43:15.760Z,-0.98
2023-01-29T09:45:55.599Z,-0.96
2023-01-29T09:48:31.415Z,-0.92
2023-01-29T09:51:07.520Z,-0.91
2023-01-29T09:53:43.752Z,-0.90
2023-01-29T09:56:23.741Z,-0.84
2023-01-29T09:58:53.771Z,-0.84
2023-01-29T10:01:31.579Z,-0.78
2023-01-29T10:04:21.804Z,-0.77
2023-01-29T10:07:09.734Z,-0.76
2023-01-29T10:10:07.608Z,-0.73
2023-01-29T10:13:02.012Z,-0.62
2023-01-29T10:15:45.889Z,-0.57
2023-01-29T10:18:41.397Z,-0.56
2023-01-29T10:21:28.058Z,-0.45
2023-01-29T10:24:12.195Z,-0.45
2023-01-29T10:26:43.623Z,-0.39
2023-01-29T10:29:22.087Z,-0.22
2023-01-29T10:31:58.139Z,-0.08
2023-01-29T10:34:33.048Z,0.02
2023-01-29T10:37:04.528Z,0.09
2023-01-29T10:39:35.022Z,0.12
2023-01-29T10:42:19.075Z,0.12
2023-01-29T10:45:03.443Z,0.16
2023-01-29T10:47:53.619Z,0.22
2023-01-29T10:50:35.159Z,0.19
2023-01-29T10:53:22.700Z,0.22
2023-01-29T10:56:05.846Z,0.33
2023-01-29T10:58:46.903Z,0.37
2023-01-29T11:01:21.644Z,0.45
2023-01-29T11:04:00.965Z,0.57
2023-01-29T11:06:34.055Z,0.63
2023-01-29T11:09:11.094Z,0.68
2023-01-29T11:11:45.931Z,0.57
2023-01-29T11:14:19.467Z,0.55
2023-01-29T11:16:52.455Z,0.55
2023-01-29T11:19:40.086Z,0.61
2023-01-29T11:22:16.951Z,0.63
2023-01-29T11:24:47.475Z,0.66
2023-01-29T11:27:30.335Z,0.73
2023-01-29T11:30:00.326Z,0.77
2023-01-29T11:32:37.634Z,0.80
2023-01-29T11:35:23.052Z,0.92
2023-01-29T11:37:54.185Z,0.92
2023-01-29T11:40:39.625Z,0.87
2023-01-29T11:43:22.630Z,0.90
2023-01-29T11:45:54.355Z,0.97
2023-01-29T11:48:35.989Z,1.04
2023-01-29T11:51:06.767Z,1.04
2023-01-29T11:53:40.729Z,1.05
2023-01-29T11:56:23.395Z,1.04
2023-01-29T11:58:56.060Z,1.07
2023-01-29T12:01:35.067Z,1.07
2023-01-29T12:04:21.957Z,1.06
2023-01-29T12:06:55.544Z,1.18
2023-01-29T12:09:30.271Z,1.16
2023-01-29T12:12:20.371Z,1.23
2023-01-29T12:15:06.217Z,1.27
2023-01-29T12:17:40.744Z,1.26
2023-01-29T12:20:20.976Z,1.29
2023-01-29T12:22:58.980Z,1.26
2023-01-29T12:25:42.849Z,1.31
2023-01-29T12:28:25.357Z,1.28
2023-01-29T12:31:13.158Z,1.31
2023-01-29T12:33:51.402Z,1.33
2023-01-29T12:36:29.579Z,1.34
2023-01-29T12:38:59.931Z,1.40
2023-01-29T12:41:39.375Z,1.39
2023-01-29T12:44:19.964Z,1.40
2023-01-29T12:46:55.906Z,1.40
2023-01-29T12:49:30.374Z,1.40
2023-01-29T12:52:10.235Z,1.46
2023-01-29T12:54:44.088Z,1.43
2023-01-29T12:57:28.732Z,1.45
2023-01-29T13:00:04.486Z,1.38
2023-01-29T13:02:42.689Z,1.39
2023-01-29T13:05:23.025Z,1.41
2023-01-29T13:08:04.090Z,1.40
2023-01-29T13:10:45.797Z,1.42
2023-01-29T13:13:25.026Z,1.47
2023-01-29T13:15:56.817Z,1.43
2023-01-29T13:18:40.123Z,1.42
2023-01-29T13:21:16.371Z,1.42
2023-01-29T13:23:52.968Z,1.41
2023-01-29T13:26:24.277Z,1.37
2023-01-29T13:28:55.668Z,1.42
2023-01-29T13:31:34.527Z,1.43
2023-01-29T13:34:15.823Z,1.38
2023-01-29T13:36:48.279Z,1.38
2023-01-29T13:39:27.965Z,1.39
2023-01-29T13:41:59.890Z,1.38
2023-01-29T13:44:35.312Z,1.35
2023-01-29T13:47:07.987Z,1.33
2023-01-29T13:49:41.445Z,1.32
2023-01-29T13:52:24.389Z,1.27
2023-01-29T13:55:00.465Z,1.27
2023-01-29T13:57:56.712Z,1.25
2023-01-29T14:00:56.391Z,1.25
2023-01-29T14:04:05.939Z,1.24
2023-01-29T14:06:53.914Z,1.21
2023-01-29T14:09:58.801Z,1.19
2023-01-29T14:12:41.870Z,1.26
2023-01-29T14:15:32.863Z,1.17
2023-01-29T14:18:07.110Z,1.14
2023-01-29T14:20:46.012Z,1.09
2023-01-29T14:23:44.126Z,1.03
2023-01-29T14:26:28.734Z,0.96
2023-01-29T14:29:09.498Z,0.96
2023-01-29T14:31:44.083Z,0.89
2023-01-29T14:34:23.712Z,0.82
2023-01-29T14:36:57.931Z,0.83
2023-01-29T14:39:36.725Z,0.73
2023-01-29T14:42:17.615Z,0.71
2023-01-29T14:45:24.745Z,0.68
2023-01-29T14:48:04.003Z,0.67
2023-01-29T14:50:51.067Z,0.66
2023-01-29T14:53:26.873Z,0.69
2023-01-29T14:56:01.436Z,0.68
2023-01-29T14:58:40.145Z,0.63
2023-01-29T15:01:22.202Z,0.66
2023-01-29T15:03:54.859Z,0.61
2023-01-29T15:06:35.161Z,0.59
2023-01-29T15:09:15.401Z,0.60
2023-01-29T15:11:58.044Z,0.57
2023-01-29T15:14:34.141Z,0.51
2023-01-29T15:17:24.634Z,0.55
2023-01-29T15:19:55.130Z,0.56
2023-01-29T15:22:29.809Z,0.57
2023-01-29T15:25:09.473Z,0.53
2023-01-29T15:27:44.668Z,0.50
2023-01-29T15:30:20.575Z,0.52
2023-01-29T15:32:53.842Z,0.53
2023-01-29T15:35:31.759Z,0.50
2023-01-29T15:38:04.697Z,0.46
2023-01-29T15:40:35.902Z,0.41
2023-01-29T15:43:25.474Z,0.44
2023-01-29T15:45:58.239Z,0.46
2023-01-29T15:48:34.763Z,0.43
2023-01-29T15:51:08.564Z,0.47
2023-01-29T15:53:45.204Z,0.42
2023-01-29T15:56:18.139Z,0.36
2023-01-29T15:58:51.969Z,0.33
2023-01-29T16:01:22.976Z,0.31
2023-01-29T16:03:59.249Z,0.37
2023-01-29T16:06:30.382Z,0.38
2023-01-29T16:09:00.829Z,0.34
2023-01-29T16:11:31.256Z,0.35
2023-01-29T16:14:01.826Z,0.38
2023-01-29T16:16:32.034Z,0.33
2023-01-29T16:19:16.031Z,0.33
2023-01-29T16:21:47.105Z,0.33
2023-01-29T16:24:22.442Z,0.33
2023-01-29T16:26:54.535Z,0.33
2023-01-29T16:29:27.500Z,0.31
2023-01-29T16:32:01.982Z,0.31
2023-01-29T16:34:39.199Z,0.32
2023-01-29T16:37:20.706Z,0.34
2023-01-29T16:39:53.028Z,0.34
2023-01-29T16:42:26.340Z,0.32
2023-01-29T16:45:03.926Z,0.30
2023-01-29T16:47:37.431Z,0.31
2023-01-29T16:50:35.992Z,0.31
2023-01-29T16:53:21.876Z,0.31
2023-01-29T16:55:54.862Z,0.32
2023-01-29T16:58:30.291Z,0.34
2023-01-29T17:01:04.093Z,0.33
2023-01-29T17:03:37.147Z,0.34
2023-01-29T17:06:16.050Z,0.34
2023-01-29T17:08:46.614Z,0.35
2023-01-29T17:11:30.257Z,0.34
2023-01-29T17:14:00.660Z,0.37
2023-01-29T17:16:33.350Z,0.35
2023-01-29T17:19:05.547Z,0.36
2023-01-29T17:21:39.064Z,0.35
2023-01-29T17:24:10.219Z,0.32
2023-01-29T17:26:41.282Z,0.33
2023-01-29T17:29:16.222Z,0.35
2023-01-29T17:31:47.202Z,0.27
2023-01-29T17:34:18.755Z,0.24
2023-01-29T17:36:52.051Z,0.24
2023-01-29T17:39:24.045Z,0.20
2023-01-29T17:41:56.733Z,0.22
2023-01-29T17:44:28.800Z,0.22
2023-01-29T17:46:59.842Z,0.24
2023-01-29T17:49:32.304Z,0.27
2023-01-29T17:52:05.325Z,0.29
2023-01-29T17:54:35.510Z,0.29
2023-01-29T17:57:06.379Z,0.31
2023-01-29T17:59:36.873Z,0.32
2023-01-29T18:02:08.821Z,0.33
2023-01-29T18:05:00.668Z,0.37
2023-01-29T18:07:33.837Z,0.34
2023-01-29T18:10:03.974Z,0.36
2023-01-29T18:12:34.874Z,0.38
2023-01-29T18:15:05.009Z,0.43
2023-01-29T18:17:35.476Z,0.41
2023-01-29T18:20:06.577Z,0.40
2023-01-29T18:22:39.587Z,0.39
2023-01-29T18:25:10.548Z,0.34
2023-01-29T18:27:41.159Z,0.39
2023-01-29T18:30:12.960Z,0.40
2023-01-29T18:32:43.633Z,0.41
2023-01-29T18:35:13.727Z,0.39
2023-01-29T18:37:47.004Z,0.43
2023-01-29T18:40:17.473Z,0.38
2023-01-29T18:42:48.719Z,0.36
2023-01-29T18:45:19.169Z,0.37
2023-01-29T18:47:49.800Z,0.36
2023-01-29T18:50:23.375Z,0.38
2023-01-29T18:52:57.093Z,0.32
2023-01-29T18:55:27.617Z,0.36
2023-01-29T18:58:28.033Z,0.33
2023-01-29T19:00:48.438Z,0.32
2023-01-29T19:03:21.829Z,0.33
2023-01-29T19:05:52.042Z,0.32
2023-01-29T19:08:25.093Z,0.37
2023-01-29T19:10:55.773Z,0.38
2023-01-29T19:13:29.193Z,0.37
2023-01-29T19:15:59.360Z,0.35
2023-01-29T19:18:30.510Z,0.32
2023-01-29T19:21:00.610Z,0.32
2023-01-29T19:23:33.727Z,0.27
2023-01-29T19:26:03.744Z,0.24
2023-01-29T19:28:34.264Z,0.23
2023-01-29T19:31:04.618Z,0.22
2023-01-29T19:33:35.250Z,0.20
2023-01-29T19:36:07.097Z,0.24
2023-01-29T19:38:40.917Z,0.23
2023-01-29T19:41:11.001Z,0.26
2023-01-29T19:43:43.001Z,0.28
2023-01-29T19:46:13.848Z,0.31
2023-01-29T19:48:44.724Z,0.30
2023-01-29T19:51:15.407Z,0.32
2023-01-29T19:53:48.874Z,0.31
2023-01-29T19:56:20.629Z,0.35
2023-01-29T19:58:57.447Z,0.35
2023-01-29T20:01:29.525Z,0.36
2023-01-29T20:04:00.309Z,0.40
2023-01-29T20:06:32.662Z,0.42
2023-01-29T20:11:56.246Z,0.40
2023-01-29T20:14:30.649Z,0.45
2023-01-29T20:17:00.794Z,0.40
2023-01-29T20:19:31.314Z,0.37
2023-01-29T20:22:02.573Z,0.39
2023-01-29T20:32:50.523Z,0.31
2023-01-29T20:35:23.715Z,0.31
2023-01-29T20:37:53.678Z,0.30
2023-01-29T20:40:25.664Z,0.32
2023-01-29T20:42:56.161Z,0.30
2023-01-29T20:45:27.243Z,0.28
2023-01-29T20:48:00.419Z,0.24
2023-01-29T20:50:37.631Z,0.21
2023-01-29T20:53:08.069Z,0.20
2023-01-29T20:55:39.173Z,0.26
2023-01-29T20:58:09.705Z,0.26
2023-01-29T21:00:40.595Z,0.24
2023-01-29T21:03:13.239Z,0.21
2023-01-29T21:05:44.923Z,0.22
2023-01-29T21:08:17.297Z,0.20
2023-01-29T21:10:47.843Z,0.24
2023-01-29T21:13:17.848Z,0.24
2023-01-29T21:15:48.238Z,0.22
2023-01-29T21:18:26.767Z,0.23
2023-01-29T21:20:57.569Z,0.20
2023-01-29T21:23:27.579Z,0.13
2023-01-29T21:26:04.365Z,0.11
2023-01-29T21:28:35.270Z,0.11
2023-01-29T21:31:07.494Z,0.08
2023-01-29T21:33:40.269Z,0.04
2023-01-29T21:36:12.340Z,0.02
2023-01-29T21:38:42.341Z,0.02
2023-01-29T21:41:12.715Z,0.01
2023-01-29T21:43:40.076Z,0.02
2023-01-29T21:46:12.252Z,-0.02
2023-01-29T21:48:45.033Z,0.00
2023-01-29T21:51:17.278Z,-0.01
2023-01-29T21:53:48.747Z,-0.02
2023-01-29T21:56:19.648Z,-0.01
2023-01-29T21:58:49.930Z,-0.01
2023-01-29T22:01:36.759Z,-0.02
2023-01-29T22:04:15.682Z,0.00
2023-01-29T22:06:46.076Z,-0.03
2023-01-29T22:09:18.674Z,-0.03
2023-01-29T22:11:49.278Z,-0.02
2023-01-29T22:14:19.682Z,-0.03
2023-01-29T22:16:50.119Z,-0.03
2023-01-29T22:19:23.587Z,-0.02
2023-01-29T22:21:54.763Z,-0.07
2023-01-29T22:24:25.389Z,-0.04
2023-01-29T22:26:55.806Z,-0.02
2023-01-29T22:29:25.848Z,-0.06
2023-01-29T22:31:56.583Z,-0.03
2023-01-29T22:34:29.236Z,-0.03
2023-01-29T22:37:00.110Z,0.01
2023-01-29T22:39:30.212Z,-0.01
2023-01-29T22:42:00.580Z,-0.04
2023-01-29T22:44:30.657Z,-0.01
2023-01-29T22:47:01.003Z,0.02
2023-01-29T22:49:33.576Z,-0.06
2023-01-29T22:52:12.845Z,-0.03
2023-01-29T22:54:44.491Z,-0.08
2023-01-29T22:57:17.151Z,-0.04
2023-01-29T22:59:47.699Z,-0.03
2023-01-29T23:02:18.738Z,-0.05
2023-01-29T23:05:06.483Z,-0.07
2023-01-29T23:07:37.560Z,-0.06
2023-01-29T23:10:08.963Z,-0.06
2023-01-29T23:12:39.859Z,-0.05
2023-01-29T23:15:10.907Z,0.09
2023-01-29T23:17:41.459Z,-0.03
2023-01-29T23:20:15.493Z,-0.05
2023-01-29T23:22:45.855Z,-0.01
2023-01-29T23:25:16.217Z,-0.03
2023-01-29T23:27:43.974Z,0.01
2023-01-29T23:30:14.954Z,0.01
2023-01-29T23:32:45.729Z,-0.01
2023-01-29T23:35:18.485Z,-0.03
2023-01-29T23:37:49.135Z,-0.04
2023-01-29T23:40:20.044Z,-0.06
2023-01-29T23:42:51.285Z,-0.06
2023-01-29T23:45:21.200Z,-0.07
2023-01-29T23:47:51.499Z,-0.04
2023-01-29T23:50:24.105Z,-0.04
2023-01-29T23:52:54.297Z,-0.08
2023-01-29T23:55:24.253Z,-0.07
2023-01-29T23:57:54.526Z,-0.04
